Meteo Giornale » Osservazioni meteo Italia » Bari-Palese Macchie

ore: 16:50 - Osservazioni Meteo Bari-Palese Macchie
Lat. 41° 8' N Lon. 16° 47' E Alt. 34 metri s.l.m.

poco_nuvoloso Europe/Rome

23 °C

Poco Nuvoloso

Temp. 24 Ore

13 °C

25 °C

Est/Sud-Est

14.8 Km/h

Dew point 18 °C

Umidità 73 %

Visibilità  10 Km

Il sole sorge alle ore 07:03

Il sole tramonta alle ore 18:14

Data e Ora Cielo e Fenomeni T °C DP °C Um. % Pres. hPa Vis. km Vento km/h
Oggi h: 16:50 poco_nuvoloso Poco Nuvoloso 23 18 73 1015 10 E/SE 14.8
Oggi h: 16:20 poco_nuvoloso Poco Nuvoloso 24 18 69 1015 10 E/SE 14.8
Oggi h: 15:50 poco_nuvoloso Poco Nuvoloso 24 18 69 1015 10 E/SE 18.5
Oggi h: 15:20 poco_nuvoloso Poco Nuvoloso 24 18 69 1016 10 E 16.7
Oggi h: 14:50 poco_nuvoloso Poco Nuvoloso 24 17 64 1016 10 E 18.5
Oggi h: 14:20 sereno Sereno 25 17 61 1016 10 E 20.3
Oggi h: 13:50 sereno Sereno 25 16 57 1017 10 E 13
Oggi h: 13:20 sereno Sereno 25 16 57 1017 10 E 14.8
Oggi h: 12:50 sereno Sereno 23 17 68 1018 10 E 18.5
Oggi h: 12:20 sereno Sereno 23 17 68 1018 10 E 16.7
Oggi h: 11:50 sereno Sereno 24 17 64 1018 10 N 7.4
Oggi h: 11:20 sereno Sereno 24 15 57 1018 10 N 3.7
Oggi h: 10:50 sereno Sereno 23 16 64 1019 10 N 3.7
Oggi h: 10:20 sereno Sereno 22 16 68 1019 10 N 5.5
Oggi h: 09:50 sereno Sereno 21 16 73 1019 10 N 3.7
Oggi h: 09:20 sereno Sereno 20 16 77 1019 10 N 3.7
Oggi h: 08:50 sereno Sereno 18 16 88 1019 10 N 3.7
Oggi h: 08:20 sereno Sereno 15 14 93 1019 10 N 5.5
Oggi h: 07:50 sereno Sereno 14 13 93 1018 10 N 5.5
Oggi h: 07:20 sereno Sereno 13 13 100 1018 8 SO 9.3
Oggi h: 06:50 sereno Sereno 13 13 100 1018 10 SO 9.3
Oggi h: 06:20 sereno Sereno 14 13 93 1018 10 SO 9.3
Oggi h: 05:50 sereno Sereno 14 13 93 1018 10 SO 11.1
Oggi h: 04:50 sereno Sereno 13 13 100 1018 10 SO 11.1
Oggi h: 03:50 sereno Sereno 13 12 93 1019 10 SO 9.3
Oggi h: 02:20 sereno Sereno 13 13 100 1019 10 N 5.5
Oggi h: 01:50 sereno Sereno 14 13 93 1019 10 SO 11.1
Oggi h: 00:50 sereno Sereno 14 13 93 1020 10 SO 7.4
Oggi h: 00:20 sereno Sereno 15 14 93 1020 10 SO 7.4
Ieri h: 23:50 sereno Sereno 15 14 93 1020 10 SO 9.3
Ieri h: 23:20 sereno Sereno 15 14 93 1020 10 SO 9.3
Ieri h: 22:50 sereno Sereno 15 15 100 1020 10 SO 7.4
Ieri h: 22:20 sereno Sereno 16 15 93 1020 10 SO 9.3
Ieri h: 21:50 sereno Sereno 16 15 93 1020 10 SO 9.3
Ieri h: 21:20 poco_nuvoloso Poco Nuvoloso 16 15 93 1020 10 SO 9.3
Ieri h: 20:50 poco_nuvoloso Poco Nuvoloso 16 15 93 1020 10 N 5.5
Ieri h: 20:20 poco_nuvoloso Poco Nuvoloso 17 16 93 1020 10 N 3.7
Ieri h: 19:50 poco_nuvoloso Poco Nuvoloso 17 16 93 1021 10 N 5.5
Ieri h: 19:20 poco_nuvoloso Poco Nuvoloso 19 17 88 1021 10 N 3.7
Ieri h: 18:50 poco_nuvoloso Poco Nuvoloso 19 17 88 1020 10 N 5.5